Time;durP1;ratioP1;P1;durP2;ratioP2;P2;SDS_P1;SDS_P2;PMS_P1;PMS_P2;Temp;Humidity;BMP_temperature;BMP_pressure;BME280_temperature;BME280_humidity;BME280_pressure;Samples;Min_cycle;Max_cycle;Signal;HPM_P1;HPM_P2
2023/04/19 00:01:14;;;;;;;1.33;0.70;;;;;;;;;;5024587;28;20337;-83
2023/04/19 00:03:40;;;;;;;1.08;0.50;;;;;;;;;;5023030;28;20156;-83
2023/04/19 00:06:07;;;;;;;1.05;0.90;;;;;;;;;;5015205;28;20062;-82
2023/04/19 00:08:33;;;;;;;1.13;1.00;;;;;;;;;;5013981;28;20568;-83
2023/04/19 00:10:59;;;;;;;0.65;0.55;;;;;;;;;;5024746;28;20048;-83
2023/04/19 00:13:25;;;;;;;1.10;0.98;;;;;;;;;;5020908;28;20550;-82
2023/04/19 00:15:51;;;;;;;0.90;0.80;;;;;;;;;;5015786;28;20093;-83
2023/04/19 00:18:17;;;;;;;0.70;0.70;;;;;;;;;;5017111;28;20484;-83
2023/04/19 00:20:44;;;;;;;1.15;0.50;;;;;;;;;;5021648;28;20033;-83
2023/04/19 00:23:09;;;;;;;1.15;0.80;;;;;;;;;;5018257;28;20034;-84
2023/04/19 00:25:35;;;;;;;0.95;0.80;;;;;;;;;;5013977;28;20041;-84
2023/04/19 00:28:02;;;;;;;0.77;0.68;;;;;;;;;;5018880;28;20030;-83
2023/04/19 00:30:28;;;;;;;0.80;0.73;;;;;;;;;;5028961;28;20045;-83
2023/04/19 00:32:54;;;;;;;0.90;0.80;;;;;;;;;;5022505;28;20029;-84
2023/04/19 00:35:20;;;;;;;2.05;0.82;;;;;;;;;;5020505;28;20083;-83
2023/04/19 00:37:46;;;;;;;1.25;0.80;;;;;;;;;;5015324;28;20124;-84
2023/04/19 00:40:12;;;;;;;0.68;0.68;;;;;;;;;;5015854;28;20026;-83
2023/04/19 00:42:38;;;;;;;0.75;0.75;;;;;;;;;;5024108;28;20042;-83
2023/04/19 00:45:04;;;;;;;0.82;0.75;;;;;;;;;;5027891;28;20044;-83
2023/04/19 00:47:30;;;;;;;0.55;0.50;;;;;;;;;;5021493;28;20417;-83
2023/04/19 00:49:56;;;;;;;1.70;0.80;;;;;;;;;;5021812;28;20461;-82
2023/04/19 00:52:22;;;;;;;0.80;0.60;;;;;;;;;;5024417;28;20040;-83
2023/04/19 00:54:49;;;;;;;1.15;1.05;;;;;;;;;;5025569;28;20037;-82
2023/04/19 00:57:15;;;;;;;1.23;0.77;;;;;;;;;;5022137;28;20392;-83
2023/04/19 00:59:41;;;;;;;0.98;0.88;;;;;;;;;;5019845;28;20654;-82
2023/04/19 01:02:08;;;;;;;1.75;1.00;;;;;;;;;;5015692;28;20224;-82
2023/04/19 01:04:35;;;;;;;0.85;0.52;;;;;;;;;;5025844;28;20502;-83
2023/04/19 01:07:04;;;;;;;1.50;1.00;;;;;;;;;;5030873;28;20029;-82
2023/04/19 01:09:30;;;;;;;1.77;0.93;;;;;;;;;;5016712;28;20053;-82
2023/04/19 01:11:56;;;;;;;0.70;0.68;;;;;;;;;;5027515;28;20033;-83
2023/04/19 01:14:22;;;;;;;0.75;0.60;;;;;;;;;;5019536;28;20038;-82
2023/04/19 01:16:49;;;;;;;1.95;0.82;;;;;;;;;;5023552;28;20052;-82
2023/04/19 01:19:15;;;;;;;0.70;0.70;;;;;;;;;;5017846;28;20059;-82
2023/04/19 01:21:42;;;;;;;1.30;0.88;;;;;;;;;;5019226;28;20052;-83
2023/04/19 01:24:08;;;;;;;1.23;0.60;;;;;;;;;;5012669;28;20101;-82
2023/04/19 01:26:34;;;;;;;1.95;0.90;;;;;;;;;;5021205;28;20465;-82
2023/04/19 01:29:00;;;;;;;1.30;0.73;;;;;;;;;;5013007;28;20496;-83
2023/04/19 01:31:26;;;;;;;0.95;0.95;;;;;;;;;;5028170;28;20029;-83
2023/04/19 01:33:52;;;;;;;0.70;0.70;;;;;;;;;;5011397;28;20029;-83
2023/04/19 01:36:18;;;;;;;3.30;1.45;;;;;;;;;;5014036;28;20030;-83
2023/04/19 01:38:46;;;;;;;1.33;0.70;;;;;;;;;;5019153;28;20034;-82
2023/04/19 01:41:12;;;;;;;0.70;0.70;;;;;;;;;;5017912;28;20050;-82
2023/04/19 01:43:38;;;;;;;1.73;0.80;;;;;;;;;;5026821;28;20032;-82
2023/04/19 01:46:04;;;;;;;1.33;0.52;;;;;;;;;;5029025;28;20484;-84
2023/04/19 01:48:30;;;;;;;0.60;0.60;;;;;;;;;;5027415;28;20061;-83
2023/04/19 01:50:56;;;;;;;0.70;0.70;;;;;;;;;;5026687;28;20031;-83
2023/04/19 01:53:22;;;;;;;1.50;0.75;;;;;;;;;;5021416;28;20030;-83
2023/04/19 01:55:49;;;;;;;0.77;0.70;;;;;;;;;;5020906;28;20108;-82
2023/04/19 01:58:15;;;;;;;0.90;0.63;;;;;;;;;;5021896;28;20736;-83
2023/04/19 02:00:41;;;;;;;1.67;0.93;;;;;;;;;;5011883;28;20034;-83
2023/04/19 02:03:07;;;;;;;1.20;1.10;;;;;;;;;;5017470;28;20071;-83
2023/04/19 02:05:33;;;;;;;1.15;0.80;;;;;;;;;;5019449;28;20029;-83
2023/04/19 02:08:00;;;;;;;1.35;0.55;;;;;;;;;;5026510;28;20028;-83
2023/04/19 02:10:26;;;;;;;0.65;0.65;;;;;;;;;;5017731;28;20060;-83
2023/04/19 02:12:55;;;;;;;2.60;0.52;;;;;;;;;;5022640;28;20029;-83
2023/04/19 02:15:21;;;;;;;1.27;0.82;;;;;;;;;;5028048;28;20045;-83
2023/04/19 02:17:47;;;;;;;0.73;0.70;;;;;;;;;;5020677;28;20049;-83
2023/04/19 02:20:13;;;;;;;1.10;0.70;;;;;;;;;;5025711;28;20033;-84
2023/04/19 02:22:39;;;;;;;0.68;0.68;;;;;;;;;;5015341;28;20037;-83
2023/04/19 02:25:05;;;;;;;0.85;0.70;;;;;;;;;;5018199;28;20045;-83
2023/04/19 02:27:31;;;;;;;1.65;1.10;;;;;;;;;;5020548;28;20029;-84
2023/04/19 02:29:57;;;;;;;1.20;0.70;;;;;;;;;;5028272;28;20037;-83
2023/04/19 02:32:23;;;;;;;1.00;0.70;;;;;;;;;;5024957;28;20021;-84
2023/04/19 02:34:49;;;;;;;0.75;0.63;;;;;;;;;;5015672;28;20045;-83
2023/04/19 02:37:17;;;;;;;1.40;1.00;;;;;;;;;;5021027;28;20029;-83
2023/04/19 02:39:44;;;;;;;1.20;0.57;;;;;;;;;;5012681;28;20056;-84
2023/04/19 02:42:10;;;;;;;0.82;0.40;;;;;;;;;;5025853;28;20036;-84
2023/04/19 02:44:36;;;;;;;0.68;0.68;;;;;;;;;;5023365;28;20037;-84
2023/04/19 02:47:02;;;;;;;0.88;0.70;;;;;;;;;;5027077;28;20030;-84
2023/04/19 02:49:35;;;;;;;0.68;0.65;;;;;;;;;;5023230;28;20112;-85
2023/04/19 02:52:01;;;;;;;0.60;0.60;;;;;;;;;;5023865;28;20168;-83
2023/04/19 02:54:27;;;;;;;0.88;0.60;;;;;;;;;;5021464;28;20037;-84
2023/04/19 02:56:53;;;;;;;0.75;0.70;;;;;;;;;;5020707;28;20113;-83
2023/04/19 02:59:19;;;;;;;1.58;0.65;;;;;;;;;;5018517;28;20033;-83
2023/04/19 03:01:45;;;;;;;0.70;0.60;;;;;;;;;;5018034;28;20030;-84
2023/04/19 03:04:11;;;;;;;0.57;0.57;;;;;;;;;;5020490;28;20037;-84
2023/04/19 03:06:37;;;;;;;1.08;0.55;;;;;;;;;;5015731;28;20022;-82
2023/04/19 03:09:03;;;;;;;0.70;0.60;;;;;;;;;;5012548;28;20032;-82
2023/04/19 03:11:29;;;;;;;0.68;0.47;;;;;;;;;;5021198;28;20480;-83
2023/04/19 03:13:55;;;;;;;0.70;0.65;;;;;;;;;;5019931;28;20084;-82
2023/04/19 03:16:21;;;;;;;0.45;0.45;;;;;;;;;;5017655;28;20052;-82
2023/04/19 03:18:47;;;;;;;0.77;0.55;;;;;;;;;;5024722;28;20060;-83
2023/04/19 03:21:13;;;;;;;0.50;0.50;;;;;;;;;;5025072;28;20036;-83
2023/04/19 03:23:39;;;;;;;0.68;0.63;;;;;;;;;;5020588;28;20615;-83
2023/04/19 03:26:05;;;;;;;0.63;0.63;;;;;;;;;;5022269;28;20164;-83
2023/04/19 03:28:31;;;;;;;0.65;0.63;;;;;;;;;;5026711;28;20021;-83
2023/04/19 03:30:57;;;;;;;3.60;0.70;;;;;;;;;;5021740;28;20045;-83
2023/04/19 03:33:23;;;;;;;0.68;0.63;;;;;;;;;;5020220;28;20113;-84
2023/04/19 03:35:50;;;;;;;2.63;0.80;;;;;;;;;;5020308;28;20026;-84
2023/04/19 03:38:16;;;;;;;1.35;0.70;;;;;;;;;;5015127;28;20032;-84
2023/04/19 03:40:42;;;;;;;0.60;0.60;;;;;;;;;;5016407;28;20026;-84
2023/04/19 03:43:08;;;;;;;0.57;0.57;;;;;;;;;;5018313;28;20026;-83
2023/04/19 03:45:34;;;;;;;0.93;0.63;;;;;;;;;;5018247;28;20392;-84
2023/04/19 03:48:00;;;;;;;0.90;0.57;;;;;;;;;;5016846;28;20461;-83
2023/04/19 03:50:25;;;;;;;0.98;0.68;;;;;;;;;;5020980;28;20361;-82
2023/04/19 03:52:53;;;;;;;1.00;0.80;;;;;;;;;;5016613;28;20026;-83
2023/04/19 03:55:19;;;;;;;0.75;0.63;;;;;;;;;;5016298;28;20254;-84
2023/04/19 03:57:45;;;;;;;0.68;0.68;;;;;;;;;;5014117;28;20121;-84
2023/04/19 04:00:12;;;;;;;0.85;0.80;;;;;;;;;;5019006;28;20108;-82
2023/04/19 04:02:38;;;;;;;1.25;0.90;;;;;;;;;;5023635;28;20052;-83
2023/04/19 04:05:05;;;;;;;0.68;0.68;;;;;;;;;;5018937;28;20037;-83
2023/04/19 04:07:30;;;;;;;1.17;0.80;;;;;;;;;;5025682;28;20150;-82
2023/04/19 04:09:57;;;;;;;0.60;0.57;;;;;;;;;;5016183;28;20026;-82
2023/04/19 04:12:22;;;;;;;1.85;0.80;;;;;;;;;;5024826;28;20384;-82
2023/04/19 04:14:49;;;;;;;2.05;0.80;;;;;;;;;;5025378;28;20033;-83
2023/04/19 04:17:14;;;;;;;0.82;0.68;;;;;;;;;;5022336;28;20049;-82
2023/04/19 04:19:40;;;;;;;1.13;0.75;;;;;;;;;;5032485;28;20022;-82
2023/04/19 04:22:07;;;;;;;1.25;0.60;;;;;;;;;;5021256;28;20076;-82
2023/04/19 04:24:40;;;;;;;0.50;0.50;;;;;;;;;;5025462;28;20041;-84
2023/04/19 04:27:08;;;;;;;0.98;0.65;;;;;;;;;;5027207;28;20026;-84
2023/04/19 04:29:35;;;;;;;1.70;0.80;;;;;;;;;;5022023;28;20032;-83
2023/04/19 04:32:01;;;;;;;0.93;0.90;;;;;;;;;;5023830;28;20111;-74
2023/04/19 04:34:27;;;;;;;0.88;0.50;;;;;;;;;;5023138;28;20029;-72
2023/04/19 04:36:53;;;;;;;1.00;0.80;;;;;;;;;;5027747;28;20044;-72
2023/04/19 04:39:19;;;;;;;0.95;0.82;;;;;;;;;;5018747;28;20035;-72
2023/04/19 04:41:47;;;;;;;0.90;0.60;;;;;;;;;;5023677;28;20017;-72
2023/04/19 04:44:14;;;;;;;1.10;1.00;;;;;;;;;;5029115;28;20514;-72
2023/04/19 04:46:40;;;;;;;0.65;0.65;;;;;;;;;;5021597;28;20121;-72
2023/04/19 04:49:06;;;;;;;1.65;1.10;;;;;;;;;;5015047;28;20388;-72
2023/04/19 04:51:32;;;;;;;0.77;0.60;;;;;;;;;;5026210;28;20021;-72
2023/04/19 04:53:58;;;;;;;0.85;0.70;;;;;;;;;;5024038;28;20033;-72
2023/04/19 04:56:25;;;;;;;0.52;0.52;;;;;;;;;;5027910;28;20018;-73
2023/04/19 04:58:51;;;;;;;1.02;0.70;;;;;;;;;;5026239;28;20048;-72
2023/04/19 05:01:18;;;;;;;0.90;0.70;;;;;;;;;;5026194;28;20017;-72
2023/04/19 05:03:44;;;;;;;1.02;0.55;;;;;;;;;;5016368;28;20641;-72
2023/04/19 05:06:10;;;;;;;1.40;0.70;;;;;;;;;;5019126;28;20049;-73
2023/04/19 05:08:36;;;;;;;0.65;0.50;;;;;;;;;;5028595;28;20033;-72
2023/04/19 05:11:02;;;;;;;0.52;0.50;;;;;;;;;;5022921;28;20033;-72
2023/04/19 05:13:28;;;;;;;1.10;0.50;;;;;;;;;;5026303;28;20040;-72
2023/04/19 05:15:54;;;;;;;1.35;0.70;;;;;;;;;;5018455;28;20021;-73
2023/04/19 05:18:20;;;;;;;1.20;0.60;;;;;;;;;;5030898;28;20038;-73
2023/04/19 05:20:46;;;;;;;0.63;0.60;;;;;;;;;;5020543;28;20029;-72
2023/04/19 05:23:12;;;;;;;0.68;0.68;;;;;;;;;;5018374;28;20029;-72
2023/04/19 05:25:38;;;;;;;1.10;0.60;;;;;;;;;;5021400;28;20030;-73
2023/04/19 05:28:04;;;;;;;2.47;0.70;;;;;;;;;;5017881;28;20837;-73
2023/04/19 05:30:30;;;;;;;0.47;0.45;;;;;;;;;;5025035;28;20021;-73
2023/04/19 05:32:56;;;;;;;0.75;0.50;;;;;;;;;;5026933;28;20052;-72
2023/04/19 05:35:22;;;;;;;0.50;0.50;;;;;;;;;;5016355;28;20025;-73
2023/04/19 05:37:48;;;;;;;1.08;0.68;;;;;;;;;;5026854;28;20037;-73
2023/04/19 05:40:14;;;;;;;2.50;1.05;;;;;;;;;;5022114;28;20034;-72
2023/04/19 05:42:40;;;;;;;0.50;0.50;;;;;;;;;;5022574;28;20039;-73
2023/04/19 05:45:06;;;;;;;0.63;0.47;;;;;;;;;;5023716;28;20032;-73
2023/04/19 05:47:32;;;;;;;0.60;0.50;;;;;;;;;;5020271;28;20473;-72
2023/04/19 05:49:58;;;;;;;0.50;0.50;;;;;;;;;;5023287;28;20057;-73
2023/04/19 05:52:24;;;;;;;0.75;0.60;;;;;;;;;;5024825;28;20159;-73
2023/04/19 05:54:50;;;;;;;0.40;0.40;;;;;;;;;;5021628;28;20017;-72
2023/04/19 05:57:16;;;;;;;1.90;1.13;;;;;;;;;;5025123;28;20465;-81
2023/04/19 05:59:43;;;;;;;0.57;0.57;;;;;;;;;;5024355;28;20400;-82
2023/04/19 06:02:09;;;;;;;0.80;0.60;;;;;;;;;;5016933;28;20037;-80
2023/04/19 06:04:35;;;;;;;0.40;0.40;;;;;;;;;;5023211;28;20113;-81
2023/04/19 06:07:01;;;;;;;3.35;0.40;;;;;;;;;;5024535;28;20026;-82
2023/04/19 06:09:27;;;;;;;0.98;0.35;;;;;;;;;;5015638;28;20025;-84
2023/04/19 06:11:53;;;;;;;0.60;0.52;;;;;;;;;;5020624;28;20079;-84
2023/04/19 06:14:20;;;;;;;0.75;0.60;;;;;;;;;;5009522;28;20026;-83
2023/04/19 06:16:46;;;;;;;2.63;0.50;;;;;;;;;;5011053;28;20094;-83
2023/04/19 06:19:12;;;;;;;0.50;0.50;;;;;;;;;;5012616;28;20696;-83
2023/04/19 06:21:38;;;;;;;0.40;0.40;;;;;;;;;;5020645;28;20044;-84
2023/04/19 06:24:06;;;;;;;0.80;0.60;;;;;;;;;;5017940;28;20033;-87
2023/04/19 06:26:32;;;;;;;0.50;0.50;;;;;;;;;;5018611;28;20018;-82
2023/04/19 06:28:58;;;;;;;0.75;0.60;;;;;;;;;;5019891;28;20039;-82
2023/04/19 06:31:24;;;;;;;0.98;0.50;;;;;;;;;;5024747;28;20044;-83
2023/04/19 06:33:50;;;;;;;0.50;0.43;;;;;;;;;;5019271;28;20570;-79
2023/04/19 06:36:16;;;;;;;0.68;0.57;;;;;;;;;;5018978;28;20025;-79
2023/04/19 06:38:43;;;;;;;0.52;0.52;;;;;;;;;;5013043;28;20101;-76
2023/04/19 06:41:09;;;;;;;0.68;0.50;;;;;;;;;;5015508;28;20025;-83
2023/04/19 06:43:35;;;;;;;0.35;0.35;;;;;;;;;;5013469;28;20393;-82
2023/04/19 06:46:03;;;;;;;1.48;0.57;;;;;;;;;;5020535;28;20057;-84
2023/04/19 06:48:29;;;;;;;0.90;0.77;;;;;;;;;;5025964;28;20032;-86
2023/04/19 06:50:55;;;;;;;0.30;0.30;;;;;;;;;;5024201;28;20118;-85
2023/04/19 06:53:21;;;;;;;0.65;0.52;;;;;;;;;;5023661;28;20112;-85
2023/04/19 06:55:47;;;;;;;0.60;0.60;;;;;;;;;;5014496;28;20035;-78
2023/04/19 06:58:13;;;;;;;0.50;0.50;;;;;;;;;;5012923;28;20022;-85
2023/04/19 07:00:39;;;;;;;0.73;0.52;;;;;;;;;;5019697;28;20030;-84
2023/04/19 07:03:05;;;;;;;1.55;0.75;;;;;;;;;;5021397;28;20294;-74
2023/04/19 07:05:31;;;;;;;0.70;0.50;;;;;;;;;;5015935;28;20404;-77
2023/04/19 07:08:36;;;;;;;1.33;0.45;;;;;;;;;;5021078;28;20675;-73
2023/04/19 07:11:02;;;;;;;0.75;0.73;;;;;;;;;;5022928;28;20068;-73
2023/04/19 07:13:28;;;;;;;1.10;0.60;;;;;;;;;;5021566;28;20022;-76
2023/04/19 07:15:54;;;;;;;0.50;0.50;;;;;;;;;;5017680;28;20073;-73
2023/04/19 07:18:20;;;;;;;0.68;0.50;;;;;;;;;;5019943;28;20516;-74
2023/04/19 07:20:48;;;;;;;0.73;0.70;;;;;;;;;;5016301;28;20481;-73
2023/04/19 07:23:14;;;;;;;0.50;0.40;;;;;;;;;;5016898;28;20018;-74
2023/04/19 07:25:40;;;;;;;1.35;0.40;;;;;;;;;;5018908;28;20469;-73
2023/04/19 07:28:06;;;;;;;2.20;0.70;;;;;;;;;;5024637;28;20026;-74
2023/04/19 07:30:32;;;;;;;0.50;0.30;;;;;;;;;;5018926;28;20018;-79
2023/04/19 07:32:58;;;;;;;8.15;0.70;;;;;;;;;;5017575;28;20097;-79
2023/04/19 07:35:24;;;;;;;0.60;0.60;;;;;;;;;;5017349;28;20063;-80
2023/04/19 07:37:50;;;;;;;1.60;0.80;;;;;;;;;;5015270;28;20505;-80
2023/04/19 07:40:16;;;;;;;1.08;0.80;;;;;;;;;;5018228;28;20033;-79
2023/04/19 07:42:43;;;;;;;3.88;0.75;;;;;;;;;;5022483;28;20062;-79
2023/04/19 07:45:09;;;;;;;0.70;0.70;;;;;;;;;;5009172;28;20112;-80
2023/04/19 07:47:35;;;;;;;0.63;0.63;;;;;;;;;;5017395;28;20112;-79
2023/04/19 07:50:02;;;;;;;1.02;0.43;;;;;;;;;;5014960;28;20052;-81
2023/04/19 07:52:28;;;;;;;0.77;0.40;;;;;;;;;;5012957;28;20025;-77
2023/04/19 07:54:54;;;;;;;0.50;0.50;;;;;;;;;;5018230;28;20037;-76
2023/04/19 07:57:20;;;;;;;0.50;0.50;;;;;;;;;;5021773;28;20025;-79
2023/04/19 07:59:46;;;;;;;0.73;0.57;;;;;;;;;;5019944;28;20500;-79
2023/04/19 08:02:12;;;;;;;0.50;0.47;;;;;;;;;;5022995;28;20049;-79
2023/04/19 08:04:38;;;;;;;0.55;0.55;;;;;;;;;;5017310;28;20030;-78
2023/04/19 08:07:04;;;;;;;0.93;0.40;;;;;;;;;;5018192;28;20048;-79
2023/04/19 08:09:30;;;;;;;0.57;0.57;;;;;;;;;;5027540;28;20021;-79
2023/04/19 08:11:57;;;;;;;0.93;0.47;;;;;;;;;;5017729;28;20380;-80
2023/04/19 08:14:23;;;;;;;0.65;0.65;;;;;;;;;;5017318;28;20018;-80
2023/04/19 08:16:49;;;;;;;0.40;0.30;;;;;;;;;;5019130;28;20045;-80
2023/04/19 08:19:15;;;;;;;1.23;0.45;;;;;;;;;;5007967;28;20049;-79
2023/04/19 08:21:41;;;;;;;1.50;0.60;;;;;;;;;;5009444;28;20626;-79
2023/04/19 08:24:07;;;;;;;0.85;0.80;;;;;;;;;;5016158;28;20434;-78
2023/04/19 08:26:33;;;;;;;1.05;0.70;;;;;;;;;;5026516;28;20537;-79
2023/04/19 08:28:59;;;;;;;0.68;0.40;;;;;;;;;;5027492;28;20021;-79
2023/04/19 08:31:25;;;;;;;0.65;0.60;;;;;;;;;;5021701;28;20052;-79
2023/04/19 08:33:51;;;;;;;1.98;0.77;;;;;;;;;;5007541;28;20476;-79
2023/04/19 08:36:17;;;;;;;2.20;0.68;;;;;;;;;;5007384;28;20053;-79
2023/04/19 08:38:43;;;;;;;0.75;0.60;;;;;;;;;;5008087;28;20034;-79
2023/04/19 08:41:11;;;;;;;0.50;0.47;;;;;;;;;;5010852;28;20017;-79
2023/04/19 08:43:37;;;;;;;0.45;0.43;;;;;;;;;;5027299;28;20030;-79
2023/04/19 08:46:04;;;;;;;0.95;0.70;;;;;;;;;;5024986;28;20159;-80
2023/04/19 08:48:31;;;;;;;0.60;0.60;;;;;;;;;;5026191;28;20489;-79
2023/04/19 08:50:57;;;;;;;0.50;0.50;;;;;;;;;;5030095;28;20045;-78
2023/04/19 08:53:24;;;;;;;0.60;0.57;;;;;;;;;;5030879;28;20029;-79
2023/04/19 08:55:53;;;;;;;1.10;0.60;;;;;;;;;;5028567;28;20125;-82
2023/04/19 08:58:19;;;;;;;0.98;0.75;;;;;;;;;;5029412;28;20166;-83
2023/04/19 09:00:44;;;;;;;1.42;0.60;;;;;;;;;;5012308;28;20033;-83
2023/04/19 09:03:11;;;;;;;0.50;0.50;;;;;;;;;;5010824;28;20030;-83
2023/04/19 09:05:37;;;;;;;0.70;0.70;;;;;;;;;;5024174;28;20037;-83
2023/04/19 09:08:23;;;;;;;2.17;1.00;;;;;;;;;;5030625;28;20036;-83
2023/04/19 09:10:53;;;;;;;1.10;0.68;;;;;;;;;;5021337;28;20034;-82
2023/04/19 09:13:20;;;;;;;0.55;0.55;;;;;;;;;;5016119;28;20021;-82
2023/04/19 09:15:46;;;;;;;2.08;0.60;;;;;;;;;;5028271;28;20523;-82
2023/04/19 09:18:13;;;;;;;2.05;0.63;;;;;;;;;;5027233;28;20053;-83
2023/04/19 09:20:39;;;;;;;0.47;0.40;;;;;;;;;;5029343;28;20017;-84
2023/04/19 09:23:06;;;;;;;2.80;0.88;;;;;;;;;;5025428;28;20048;-82
2023/04/19 09:25:32;;;;;;;1.25;0.80;;;;;;;;;;5017002;28;20191;-80
2023/04/19 09:28:11;;;;;;;3.25;0.82;;;;;;;;;;5011317;28;20030;-84
2023/04/19 09:30:37;;;;;;;0.63;0.63;;;;;;;;;;5019782;28;20389;-83
2023/04/19 09:33:03;;;;;;;1.02;0.70;;;;;;;;;;5012399;28;20036;-83
2023/04/19 09:35:40;;;;;;;0.70;0.70;;;;;;;;;;5016103;28;20139;-83
2023/04/19 09:38:06;;;;;;;1.40;0.50;;;;;;;;;;5010072;28;20401;-83
2023/04/19 09:40:31;;;;;;;1.50;0.60;;;;;;;;;;5010136;28;20030;-84
2023/04/19 09:42:58;;;;;;;1.33;0.75;;;;;;;;;;5010127;28;20481;-84
2023/04/19 09:45:24;;;;;;;0.45;0.45;;;;;;;;;;5020295;28;20029;-84
2023/04/19 09:48:03;;;;;;;1.38;0.77;;;;;;;;;;5028011;28;20033;-79
2023/04/19 09:50:29;;;;;;;0.50;0.50;;;;;;;;;;5023786;28;20033;-80
2023/04/19 09:52:55;;;;;;;1.42;0.80;;;;;;;;;;5021583;28;20030;-83
2023/04/19 09:55:22;;;;;;;1.88;1.10;;;;;;;;;;5022637;28;20491;-82
2023/04/19 09:57:48;;;;;;;3.33;1.67;;;;;;;;;;5020446;28;20077;-81
2023/04/19 10:00:14;;;;;;;0.95;0.70;;;;;;;;;;5033435;28;20033;-81
2023/04/19 10:02:41;;;;;;;0.85;0.70;;;;;;;;;;5022592;28;20029;-81
2023/04/19 10:05:08;;;;;;;1.67;1.00;;;;;;;;;;5023722;28;20117;-82
2023/04/19 10:07:35;;;;;;;1.25;0.73;;;;;;;;;;5029455;28;20033;-82
2023/04/19 10:10:02;;;;;;;0.70;0.70;;;;;;;;;;5029176;28;20026;-84
2023/04/19 10:12:28;;;;;;;0.95;0.90;;;;;;;;;;5026030;28;20025;-84
2023/04/19 10:14:56;;;;;;;1.45;0.90;;;;;;;;;;5028758;28;20036;-84
2023/04/19 10:17:22;;;;;;;2.15;0.85;;;;;;;;;;5017598;28;20072;-84
2023/04/19 10:19:50;;;;;;;3.58;1.08;;;;;;;;;;5019061;28;20057;-82
2023/04/19 10:22:15;;;;;;;2.28;1.30;;;;;;;;;;5015949;28;20030;-81
2023/04/19 10:25:01;;;;;;;6.03;1.20;;;;;;;;;;5019654;28;20037;-83
2023/04/19 10:27:27;;;;;;;0.93;0.80;;;;;;;;;;5028564;28;20021;-83
2023/04/19 10:30:06;;;;;;;1.92;1.00;;;;;;;;;;5025289;28;20480;-86
2023/04/19 10:32:40;;;;;;;0.60;0.60;;;;;;;;;;5008916;28;20427;-84
2023/04/19 10:35:10;;;;;;;0.98;0.80;;;;;;;;;;5026073;28;20041;-84
2023/04/19 10:37:40;;;;;;;1.17;1.10;;;;;;;;;;5026463;28;20042;-84
2023/04/19 10:40:07;;;;;;;1.17;0.63;;;;;;;;;;5020519;28;20653;-82
2023/04/19 10:42:52;;;;;;;2.95;0.75;;;;;;;;;;5012782;28;20489;-83
2023/04/19 10:45:34;;;;;;;3.22;1.10;;;;;;;;;;5018104;28;20047;-82
2023/04/19 10:48:02;;;;;;;2.08;1.15;;;;;;;;;;5020411;28;20116;-84
2023/04/19 10:50:28;;;;;;;2.17;1.00;;;;;;;;;;5022894;28;20018;-83
2023/04/19 10:52:54;;;;;;;3.20;0.80;;;;;;;;;;5016858;28;20090;-83
2023/04/19 10:55:20;;;;;;;1.15;0.75;;;;;;;;;;5018226;28;20393;-84
2023/04/19 10:58:02;;;;;;;1.20;1.10;;;;;;;;;;5021630;28;20113;-83
2023/04/19 11:00:31;;;;;;;1.30;0.80;;;;;;;;;;5015910;28;20068;-82
2023/04/19 11:02:57;;;;;;;1.20;0.82;;;;;;;;;;5027395;28;20105;-84
2023/04/19 11:05:23;;;;;;;1.45;0.90;;;;;;;;;;5028269;28;20025;-84
2023/04/19 11:07:49;;;;;;;1.05;0.88;;;;;;;;;;5026465;28;20033;-83
2023/04/19 11:10:27;;;;;;;1.33;0.70;;;;;;;;;;5022901;28;20437;-83
2023/04/19 11:12:52;;;;;;;1.60;0.80;;;;;;;;;;5013910;28;20026;-84
2023/04/19 11:15:21;;;;;;;1.83;0.82;;;;;;;;;;5028071;28;20032;-84
2023/04/19 11:17:49;;;;;;;0.65;0.50;;;;;;;;;;5028150;28;20037;-83
2023/04/19 11:20:15;;;;;;;1.52;1.05;;;;;;;;;;5025002;28;20040;-84
2023/04/19 11:22:42;;;;;;;1.42;0.80;;;;;;;;;;5016246;28;20034;-83
2023/04/19 11:25:12;;;;;;;1.15;0.88;;;;;;;;;;5016063;28;20037;-83
2023/04/19 11:27:45;;;;;;;1.50;0.70;;;;;;;;;;5008334;28;20485;-84
2023/04/19 11:30:15;;;;;;;1.45;0.70;;;;;;;;;;5012496;28;20180;-82
2023/04/19 11:32:49;;;;;;;1.27;0.88;;;;;;;;;;5019893;28;20021;-84
2023/04/19 11:35:15;;;;;;;2.70;0.90;;;;;;;;;;5017690;28;20548;-83
2023/04/19 11:37:41;;;;;;;1.00;0.70;;;;;;;;;;5016078;28;20340;-84
2023/04/19 11:40:08;;;;;;;1.58;0.90;;;;;;;;;;5010826;28;20087;-83
2023/04/19 11:42:34;;;;;;;0.70;0.70;;;;;;;;;;5015778;28;20121;-85
2023/04/19 11:45:00;;;;;;;1.38;0.80;;;;;;;;;;5011354;28;20120;-84
2023/04/19 11:47:26;;;;;;;1.35;1.17;;;;;;;;;;5014519;28;20025;-84
2023/04/19 11:49:55;;;;;;;0.70;0.70;;;;;;;;;;5017206;28;20038;-85
2023/04/19 11:52:22;;;;;;;1.63;0.70;;;;;;;;;;5008379;28;20084;-83
2023/04/19 11:54:48;;;;;;;0.75;0.70;;;;;;;;;;5023534;28;20037;-84
2023/04/19 11:57:14;;;;;;;1.00;0.68;;;;;;;;;;5017727;28;20049;-84
2023/04/19 12:00:00;;;;;;;0.68;0.68;;;;;;;;;;5008098;28;20376;-84
2023/04/19 12:02:26;;;;;;;2.63;0.80;;;;;;;;;;5027414;28;20034;-84
2023/04/19 12:04:52;;;;;;;1.58;1.10;;;;;;;;;;5013196;28;20034;-84
2023/04/19 12:07:18;;;;;;;0.98;0.60;;;;;;;;;;5017181;28;20022;-85
2023/04/19 12:09:48;;;;;;;1.55;1.00;;;;;;;;;;5017836;28;20029;-84
2023/04/19 12:12:30;;;;;;;1.98;0.85;;;;;;;;;;5017485;28;20021;-87
2023/04/19 12:14:56;;;;;;;1.88;1.33;;;;;;;;;;5009827;28;20037;-85
2023/04/19 12:17:22;;;;;;;0.93;0.60;;;;;;;;;;5014916;28;20056;-84
2023/04/19 12:19:48;;;;;;;0.98;0.80;;;;;;;;;;5017819;28;20178;-85
2023/04/19 12:22:15;;;;;;;0.63;0.63;;;;;;;;;;5026109;28;20030;-86
2023/04/19 12:24:42;;;;;;;3.95;0.80;;;;;;;;;;5029827;28;20365;-86
2023/04/19 12:27:08;;;;;;;1.23;0.73;;;;;;;;;;5023347;28;20029;-85
2023/04/19 12:29:34;;;;;;;1.70;0.85;;;;;;;;;;5028391;28;20112;-84
2023/04/19 12:32:00;;;;;;;1.38;0.80;;;;;;;;;;5031712;28;20025;-84
2023/04/19 12:34:26;;;;;;;1.38;0.60;;;;;;;;;;5028302;28;20030;-85
2023/04/19 12:36:52;;;;;;;0.70;0.70;;;;;;;;;;5022044;28;20481;-85
2023/04/19 12:39:18;;;;;;;1.50;0.80;;;;;;;;;;5011720;28;20048;-85
2023/04/19 12:41:47;;;;;;;1.15;0.80;;;;;;;;;;5011497;28;20366;-85
2023/04/19 12:44:13;;;;;;;0.60;0.60;;;;;;;;;;5021669;28;20031;-85
2023/04/19 12:46:38;;;;;;;0.60;0.60;;;;;;;;;;5019829;28;20038;-85
2023/04/19 12:49:04;;;;;;;0.88;0.82;;;;;;;;;;5017408;28;20034;-85
2023/04/19 12:51:31;;;;;;;0.93;0.80;;;;;;;;;;5020015;28;20032;-85
2023/04/19 12:53:57;;;;;;;0.65;0.65;;;;;;;;;;5023279;28;20029;-85
2023/04/19 12:56:23;;;;;;;0.95;0.77;;;;;;;;;;5028098;28;20040;-85
2023/04/19 12:58:49;;;;;;;2.05;0.82;;;;;;;;;;5022526;28;20039;-84
2023/04/19 13:01:15;;;;;;;1.38;0.88;;;;;;;;;;5010965;28;20037;-86
2023/04/19 13:03:42;;;;;;;2.95;0.82;;;;;;;;;;5016735;28;20524;-86
2023/04/19 13:06:09;;;;;;;2.00;0.88;;;;;;;;;;5021540;28;20756;-87
2023/04/19 13:08:37;;;;;;;0.85;0.80;;;;;;;;;;5011234;28;20100;-87
2023/04/19 13:11:03;;;;;;;0.95;0.95;;;;;;;;;;5020639;28;20500;-89
2023/04/19 13:13:29;;;;;;;1.35;0.95;;;;;;;;;;5022623;28;20025;-87
2023/04/19 13:15:55;;;;;;;0.80;0.80;;;;;;;;;;5015889;28;20037;-87
2023/04/19 13:18:21;;;;;;;0.70;0.70;;;;;;;;;;5028575;28;20034;-85
2023/04/19 13:20:47;;;;;;;1.60;0.98;;;;;;;;;;5030817;28;20546;-86
2023/04/19 13:23:13;;;;;;;0.80;0.80;;;;;;;;;;5025054;28;20641;-86
2023/04/19 13:25:39;;;;;;;2.80;0.90;;;;;;;;;;5025017;28;20040;-86
2023/04/19 13:28:05;;;;;;;1.15;0.90;;;;;;;;;;5017927;28;20033;-87
2023/04/19 13:30:31;;;;;;;1.35;0.80;;;;;;;;;;5010481;28;20060;-86
2023/04/19 13:32:57;;;;;;;3.72;0.98;;;;;;;;;;5023383;28;20629;-75
2023/04/19 13:35:23;;;;;;;1.85;0.73;;;;;;;;;;5020248;28;20026;-74
2023/04/19 13:37:50;;;;;;;1.25;1.00;;;;;;;;;;5025468;28;20200;-74
2023/04/19 13:40:16;;;;;;;0.70;0.70;;;;;;;;;;5018213;28;20087;-75
2023/04/19 13:42:42;;;;;;;1.38;0.98;;;;;;;;;;5021985;28;20388;-73
2023/04/19 13:45:08;;;;;;;1.15;0.90;;;;;;;;;;5014450;28;20030;-74
2023/04/19 13:47:34;;;;;;;4.40;0.90;;;;;;;;;;5020902;28;20029;-74
2023/04/19 13:50:00;;;;;;;0.68;0.63;;;;;;;;;;5013987;28;20034;-74
2023/04/19 13:52:26;;;;;;;1.20;0.95;;;;;;;;;;5020794;28;20087;-80
2023/04/19 13:54:52;;;;;;;2.05;1.17;;;;;;;;;;5019267;28;20104;-87
2023/04/19 13:57:18;;;;;;;8.35;1.30;;;;;;;;;;5021079;28;20554;-79
2023/04/19 13:59:44;;;;;;;1.55;0.93;;;;;;;;;;5027978;28;20431;-86
2023/04/19 14:02:10;;;;;;;0.90;0.80;;;;;;;;;;5023443;28;20381;-84
2023/04/19 14:04:36;;;;;;;0.80;0.80;;;;;;;;;;5029941;28;20048;-89
2023/04/19 14:07:02;;;;;;;1.08;0.90;;;;;;;;;;5025707;28;20033;-87
2023/04/19 14:09:28;;;;;;;1.17;0.98;;;;;;;;;;5023255;28;20426;-80
2023/04/19 14:11:54;;;;;;;0.95;0.88;;;;;;;;;;5014608;28;20215;-83
2023/04/19 14:14:20;;;;;;;0.98;0.88;;;;;;;;;;5013573;28;20025;-86
2023/04/19 14:16:46;;;;;;;1.33;0.77;;;;;;;;;;5018856;28;20042;-81
2023/04/19 14:19:12;;;;;;;1.73;0.80;;;;;;;;;;5023481;28;20538;-85
2023/04/19 14:21:38;;;;;;;6.07;0.90;;;;;;;;;;5029282;28;20025;-86
2023/04/19 14:24:04;;;;;;;1.38;0.90;;;;;;;;;;5025182;28;20064;-89
2023/04/19 14:26:30;;;;;;;1.75;0.98;;;;;;;;;;5019835;28;20037;-85
2023/04/19 14:28:56;;;;;;;2.42;0.90;;;;;;;;;;5029321;28;20025;-79
2023/04/19 14:31:22;;;;;;;4.13;1.33;;;;;;;;;;5020347;28;20026;-74
2023/04/19 14:33:48;;;;;;;1.13;1.02;;;;;;;;;;5021518;28;20087;-89
2023/04/19 14:36:14;;;;;;;2.25;1.00;;;;;;;;;;5020428;28;20087;-77
2023/04/19 14:38:40;;;;;;;1.33;0.93;;;;;;;;;;5021002;28;20095;-89
2023/04/19 14:41:06;;;;;;;4.75;1.05;;;;;;;;;;5019376;28;20489;-84